Time;durP1;ratioP1;P1;durP2;ratioP2;P2;SDS_P1;SDS_P2;PMS_P1;PMS_P2;Temp;Humidity;BMP_temperature;BMP_pressure;BME280_temperature;BME280_humidity;BME280_pressure;Samples;Min_cycle;Max_cycle;Signal;HPM_P1;HPM_P2
2024/04/08 00:00:11;;;;;;;4.40;1.13;;;;;;;;;;2223595;26;20008;-72
2024/04/08 00:01:12;;;;;;;3.42;1.13;;;;;;;;;;2225531;26;20449;-74
2024/04/08 00:02:13;;;;;;;2.25;0.73;;;;;;;;;;2225497;26;20000;-67
2024/04/08 00:03:15;;;;;;;1.95;0.95;;;;;;;;;;2225561;26;20078;-74
2024/04/08 00:04:16;;;;;;;3.17;1.00;;;;;;;;;;2225545;26;20000;-78
2024/04/08 00:05:19;;;;;;;4.03;0.98;;;;;;;;;;2225220;26;20000;-68
2024/04/08 00:06:20;;;;;;;2.15;1.13;;;;;;;;;;2222917;26;20031;-74
2024/04/08 00:07:21;;;;;;;4.93;1.20;;;;;;;;;;2225424;26;20001;-74
2024/04/08 00:08:23;;;;;;;2.38;0.85;;;;;;;;;;2225418;26;20015;-73
2024/04/08 00:09:25;;;;;;;2.53;0.80;;;;;;;;;;2225613;26;20000;-69
2024/04/08 00:10:26;;;;;;;4.53;1.00;;;;;;;;;;2225264;26;20000;-72
2024/04/08 00:11:27;;;;;;;3.47;1.27;;;;;;;;;;2225664;26;20074;-75
2024/04/08 00:12:29;;;;;;;3.22;1.15;;;;;;;;;;2225283;26;20360;-73
2024/04/08 00:13:31;;;;;;;2.35;1.20;;;;;;;;;;2222893;26;20068;-70
2024/04/08 00:14:32;;;;;;;2.15;1.00;;;;;;;;;;2225335;26;20008;-69
2024/04/08 00:15:34;;;;;;;2.20;0.80;;;;;;;;;;2225239;26;20019;-74
2024/04/08 00:16:35;;;;;;;6.97;1.38;;;;;;;;;;2224885;26;20012;-74
2024/04/08 00:17:37;;;;;;;4.55;1.30;;;;;;;;;;2224592;26;20002;-74
2024/04/08 00:18:38;;;;;;;2.92;1.08;;;;;;;;;;2225355;26;20014;-68
2024/04/08 00:19:39;;;;;;;3.15;1.02;;;;;;;;;;2225179;26;20004;-72
2024/04/08 00:20:41;;;;;;;3.67;1.23;;;;;;;;;;2223166;26;20013;-71
2024/04/08 00:21:42;;;;;;;3.20;1.10;;;;;;;;;;2225084;26;20121;-64
2024/04/08 00:22:46;;;;;;;3.95;1.33;;;;;;;;;;2225118;26;20081;-71
2024/04/08 00:23:50;;;;;;;2.55;1.20;;;;;;;;;;2225303;26;20326;-73
2024/04/08 00:24:54;;;;;;;2.40;1.27;;;;;;;;;;2222403;26;20012;-72
2024/04/08 00:25:56;;;;;;;2.75;1.15;;;;;;;;;;2224573;26;20000;-73
2024/04/08 00:26:57;;;;;;;3.28;1.00;;;;;;;;;;2224519;26;20437;-75
2024/04/08 00:27:58;;;;;;;4.68;1.73;;;;;;;;;;2224350;26;20000;-74
2024/04/08 00:29:00;;;;;;;2.42;0.93;;;;;;;;;;2220925;26;20012;-73
2024/04/08 00:30:04;;;;;;;3.70;1.52;;;;;;;;;;2226289;26;20000;-75
2024/04/08 00:31:05;;;;;;;3.20;1.60;;;;;;;;;;2224534;26;20156;-75
2024/04/08 00:32:07;;;;;;;4.15;1.63;;;;;;;;;;2224397;26;20011;-77
2024/04/08 00:33:10;;;;;;;3.85;1.20;;;;;;;;;;2225270;26;20020;-76
2024/04/08 00:34:11;;;;;;;2.70;1.08;;;;;;;;;;2223786;26;20000;-75
2024/04/08 00:35:12;;;;;;;3.25;1.00;;;;;;;;;;2225442;26;20439;-74
2024/04/08 00:36:14;;;;;;;2.75;1.23;;;;;;;;;;2225392;26;20015;-76
2024/04/08 00:37:15;;;;;;;3.25;1.02;;;;;;;;;;2225317;26;20354;-75
2024/04/08 00:38:16;;;;;;;1.58;0.98;;;;;;;;;;2226480;26;20000;-77
2024/04/08 00:39:18;;;;;;;4.07;1.45;;;;;;;;;;2225584;26;20000;-77
2024/04/08 00:40:19;;;;;;;5.13;1.50;;;;;;;;;;2225146;26;20325;-76
2024/04/08 00:41:20;;;;;;;3.42;1.20;;;;;;;;;;2222886;26;20019;-76
2024/04/08 00:42:22;;;;;;;4.35;1.40;;;;;;;;;;2225212;26;20011;-73
2024/04/08 00:43:23;;;;;;;3.30;1.20;;;;;;;;;;2225354;26;20000;-77
2024/04/08 00:44:25;;;;;;;2.95;1.02;;;;;;;;;;2224940;26;20000;-76
2024/04/08 00:45:27;;;;;;;2.78;1.40;;;;;;;;;;2225183;26;20444;-76
2024/04/08 00:46:29;;;;;;;4.15;1.08;;;;;;;;;;2225161;26;20030;-76
2024/04/08 00:47:30;;;;;;;4.97;1.38;;;;;;;;;;2223207;26;20008;-75
2024/04/08 00:48:32;;;;;;;4.28;1.52;;;;;;;;;;2224120;26;20073;-71
2024/04/08 00:49:33;;;;;;;3.97;1.35;;;;;;;;;;2225011;26;20004;-74
2024/04/08 00:50:38;;;;;;;3.15;1.40;;;;;;;;;;2224918;26;20004;-72
2024/04/08 00:51:42;;;;;;;3.47;1.77;;;;;;;;;;2223633;26;19992;-71
2024/04/08 00:52:43;;;;;;;2.58;1.15;;;;;;;;;;2224646;26;20000;-76
2024/04/08 00:53:45;;;;;;;3.75;1.33;;;;;;;;;;2225209;26;20405;-74
2024/04/08 00:54:47;;;;;;;4.28;1.38;;;;;;;;;;2223492;26;20337;-75
2024/04/08 00:55:48;;;;;;;3.28;1.30;;;;;;;;;;2225130;26;20541;-71
2024/04/08 00:56:50;;;;;;;1.83;1.20;;;;;;;;;;2225010;26;20011;-73
2024/04/08 00:57:51;;;;;;;1.83;0.95;;;;;;;;;;2225119;26;20000;-71
2024/04/08 00:58:53;;;;;;;4.95;1.10;;;;;;;;;;2225143;26;20103;-75
2024/04/08 00:59:54;;;;;;;5.38;1.40;;;;;;;;;;2224943;26;20011;-74
2024/04/08 01:00:56;;;;;;;2.55;1.00;;;;;;;;;;2222799;26;20150;-73
2024/04/08 01:01:57;;;;;;;3.55;1.15;;;;;;;;;;2224869;26;20376;-74
2024/04/08 01:03:02;;;;;;;2.22;1.17;;;;;;;;;;2225195;26;20011;-74
2024/04/08 01:04:04;;;;;;;3.45;1.23;;;;;;;;;;2225041;26;20000;-74
2024/04/08 01:05:08;;;;;;;1.85;1.13;;;;;;;;;;2222845;26;20007;-74
2024/04/08 01:06:11;;;;;;;6.80;1.63;;;;;;;;;;2225037;26;20004;-71
2024/04/08 01:07:13;;;;;;;5.05;1.60;;;;;;;;;;2224790;26;20007;-72
2024/04/08 01:08:14;;;;;;;4.28;1.23;;;;;;;;;;2224975;26;20437;-73
2024/04/08 01:09:16;;;;;;;2.30;0.88;;;;;;;;;;2222811;26;20012;-71
2024/04/08 01:10:18;;;;;;;3.90;1.30;;;;;;;;;;2224793;26;20012;-67
2024/04/08 01:11:19;;;;;;;3.75;0.95;;;;;;;;;;2225018;26;20406;-74
2024/04/08 01:12:20;;;;;;;2.75;1.00;;;;;;;;;;2224595;26;20061;-75
2024/04/08 01:13:22;;;;;;;4.43;1.08;;;;;;;;;;2224856;26;20127;-75
2024/04/08 01:14:24;;;;;;;9.50;1.75;;;;;;;;;;2225345;26;20437;-75
2024/04/08 01:15:25;;;;;;;3.38;1.33;;;;;;;;;;2224650;26;20001;-75
2024/04/08 01:16:29;;;;;;;4.50;1.10;;;;;;;;;;2223336;26;20011;-75
2024/04/08 01:17:30;;;;;;;2.67;1.15;;;;;;;;;;2224097;26;20019;-75
2024/04/08 01:18:31;;;;;;;1.73;1.00;;;;;;;;;;2224316;26;20004;-71
2024/04/08 01:19:34;;;;;;;2.08;1.02;;;;;;;;;;2224956;26;20019;-74
2024/04/08 01:20:35;;;;;;;4.28;1.25;;;;;;;;;;2224986;26;20085;-73
2024/04/08 01:21:36;;;;;;;3.25;1.40;;;;;;;;;;2222521;26;20016;-73
2024/04/08 01:22:38;;;;;;;1.85;0.93;;;;;;;;;;2225087;26;20362;-74
2024/04/08 01:23:41;;;;;;;3.20;1.10;;;;;;;;;;2224954;26;20007;-74
2024/04/08 01:24:42;;;;;;;2.80;1.02;;;;;;;;;;2225019;26;20031;-73
2024/04/08 01:25:44;;;;;;;1.17;0.80;;;;;;;;;;2224994;26;20382;-73
2024/04/08 01:26:45;;;;;;;3.78;1.20;;;;;;;;;;2225172;26;20078;-66
2024/04/08 01:27:46;;;;;;;2.40;1.23;;;;;;;;;;2222829;26;20008;-69
2024/04/08 01:28:50;;;;;;;3.47;1.45;;;;;;;;;;2226082;26;20015;-70
2024/04/08 01:29:51;;;;;;;1.63;1.00;;;;;;;;;;2226209;26;19996;-74
2024/04/08 01:30:55;;;;;;;2.58;1.25;;;;;;;;;;2226582;26;20448;-78
2024/04/08 01:31:57;;;;;;;1.92;0.90;;;;;;;;;;2223470;26;20034;-76
2024/04/08 01:32:58;;;;;;;2.33;1.10;;;;;;;;;;2225828;26;20000;-79
2024/04/08 01:33:59;;;;;;;2.15;1.00;;;;;;;;;;2225506;26;20359;-77
2024/04/08 01:35:01;;;;;;;2.70;1.30;;;;;;;;;;2225621;26;20008;-70
2024/04/08 01:36:04;;;;;;;2.10;1.05;;;;;;;;;;2226421;26;20016;-64
2024/04/08 01:37:05;;;;;;;2.38;0.93;;;;;;;;;;2225531;26;20103;-77
2024/04/08 01:38:07;;;;;;;5.20;1.55;;;;;;;;;;2223474;26;20014;-76
2024/04/08 01:39:09;;;;;;;3.28;1.70;;;;;;;;;;2226658;26;19997;-75
2024/04/08 01:40:11;;;;;;;3.22;1.15;;;;;;;;;;2226451;26;20077;-74
2024/04/08 01:41:12;;;;;;;2.25;0.88;;;;;;;;;;2226366;26;20007;-72
2024/04/08 01:42:14;;;;;;;3.67;1.10;;;;;;;;;;2226418;26;20093;-72
2024/04/08 01:43:15;;;;;;;2.08;1.20;;;;;;;;;;2224218;26;20004;-73
2024/04/08 01:44:18;;;;;;;2.72;1.05;;;;;;;;;;2226677;26;20001;-74
2024/04/08 01:45:19;;;;;;;1.58;1.13;;;;;;;;;;2226250;26;20445;-68
2024/04/08 01:46:20;;;;;;;2.28;0.90;;;;;;;;;;2226485;26;20000;-73
2024/04/08 01:47:22;;;;;;;4.70;1.10;;;;;;;;;;2226452;26;20000;-73
2024/04/08 01:48:23;;;;;;;3.63;1.15;;;;;;;;;;2226395;26;20004;-72
2024/04/08 01:49:27;;;;;;;4.72;1.33;;;;;;;;;;2226637;26;20007;-71
2024/04/08 01:50:29;;;;;;;2.28;1.10;;;;;;;;;;2222511;26;20015;-71
2024/04/08 01:51:30;;;;;;;1.92;1.02;;;;;;;;;;2226046;26;20011;-73
2024/04/08 01:52:31;;;;;;;2.22;1.13;;;;;;;;;;2225503;26;20078;-73
2024/04/08 01:53:33;;;;;;;1.30;1.08;;;;;;;;;;2225590;26;20138;-77
2024/04/08 01:54:34;;;;;;;2.92;0.85;;;;;;;;;;2226640;26;20000;-70
2024/04/08 01:55:35;;;;;;;2.53;1.08;;;;;;;;;;2224058;26;20469;-75
2024/04/08 01:56:37;;;;;;;2.15;1.45;;;;;;;;;;2226392;26;20068;-69
2024/04/08 01:57:38;;;;;;;1.65;1.00;;;;;;;;;;2226503;26;20000;-78
2024/04/08 01:58:40;;;;;;;1.35;0.90;;;;;;;;;;2226427;26;20011;-73
2024/04/08 01:59:42;;;;;;;2.88;0.98;;;;;;;;;;2226303;26;20417;-73
2024/04/08 02:00:44;;;;;;;4.07;1.00;;;;;;;;;;2226258;26;20370;-71
2024/04/08 02:01:45;;;;;;;1.80;1.17;;;;;;;;;;2226385;26;20000;-75
2024/04/08 02:02:47;;;;;;;3.58;1.20;;;;;;;;;;2224390;26;20048;-69
2024/04/08 02:03:49;;;;;;;2.25;0.90;;;;;;;;;;2226612;26;20445;-74
2024/04/08 02:04:50;;;;;;;1.92;1.17;;;;;;;;;;2226396;26;20019;-75
2024/04/08 02:05:52;;;;;;;2.53;0.88;;;;;;;;;;2226357;26;20028;-73
2024/04/08 02:06:53;;;;;;;2.70;0.88;;;;;;;;;;2226268;26;20530;-78
2024/04/08 02:07:55;;;;;;;1.52;0.82;;;;;;;;;;2226146;26;20011;-73
2024/04/08 02:08:56;;;;;;;2.55;0.90;;;;;;;;;;2223979;26;20145;-75
2024/04/08 02:09:58;;;;;;;1.80;0.70;;;;;;;;;;2226539;26;20358;-75
2024/04/08 02:10:59;;;;;;;3.75;0.95;;;;;;;;;;2226394;26;20004;-72
2024/04/08 02:12:02;;;;;;;2.35;1.08;;;;;;;;;;2226418;26;20391;-75
2024/04/08 02:13:03;;;;;;;1.90;0.90;;;;;;;;;;2226299;26;20000;-73
2024/04/08 02:14:04;;;;;;;2.55;0.98;;;;;;;;;;2226522;26;20011;-72
2024/04/08 02:15:06;;;;;;;1.95;0.95;;;;;;;;;;2223890;26;20465;-73
2024/04/08 02:16:08;;;;;;;3.42;1.02;;;;;;;;;;2226409;26;20027;-75
2024/04/08 02:17:10;;;;;;;1.50;0.90;;;;;;;;;;2224666;26;20010;-70
2024/04/08 02:18:11;;;;;;;2.53;0.82;;;;;;;;;;2221410;26;20015;-70
2024/04/08 02:19:12;;;;;;;2.33;0.93;;;;;;;;;;2226167;26;19996;-71
2024/04/08 02:20:14;;;;;;;3.42;0.98;;;;;;;;;;2237828;26;20053;-69
2024/04/08 02:21:16;;;;;;;2.40;0.90;;;;;;;;;;2226044;26;20113;-69
2024/04/08 02:22:17;;;;;;;2.63;0.90;;;;;;;;;;2224318;26;20000;-71
2024/04/08 02:23:19;;;;;;;3.08;0.85;;;;;;;;;;2224849;26;20011;-72
2024/04/08 02:24:20;;;;;;;2.85;0.80;;;;;;;;;;2226152;26;20462;-71
2024/04/08 02:25:21;;;;;;;2.75;1.08;;;;;;;;;;2226166;26;20000;-73
2024/04/08 02:26:24;;;;;;;1.85;0.70;;;;;;;;;;2226251;26;20522;-71
2024/04/08 02:27:25;;;;;;;1.15;0.57;;;;;;;;;;2226219;26;20413;-69
2024/04/08 02:28:26;;;;;;;3.15;0.70;;;;;;;;;;2224118;26;20015;-70
2024/04/08 02:29:29;;;;;;;1.67;0.77;;;;;;;;;;2225374;26;20028;-71
2024/04/08 02:30:33;;;;;;;1.65;0.82;;;;;;;;;;2224919;26;20344;-73
2024/04/08 02:31:35;;;;;;;1.50;0.70;;;;;;;;;;2226057;26;20015;-71
2024/04/08 02:32:36;;;;;;;2.10;0.80;;;;;;;;;;2223855;26;20049;-71
2024/04/08 02:33:37;;;;;;;2.78;0.90;;;;;;;;;;2226082;26;20004;-72
2024/04/08 02:34:40;;;;;;;2.70;0.70;;;;;;;;;;2226221;26;20024;-74
2024/04/08 02:35:41;;;;;;;1.77;0.80;;;;;;;;;;2227241;26;20004;-72
2024/04/08 02:36:44;;;;;;;1.38;0.70;;;;;;;;;;2226875;26;20073;-74
2024/04/08 02:37:45;;;;;;;4.38;1.00;;;;;;;;;;2226273;26;20330;-73
2024/04/08 02:38:46;;;;;;;1.45;0.77;;;;;;;;;;2223971;26;20000;-73
2024/04/08 02:39:48;;;;;;;2.70;0.60;;;;;;;;;;2225658;26;20011;-68
2024/04/08 02:40:49;;;;;;;4.60;1.10;;;;;;;;;;2225833;26;20331;-71
2024/04/08 02:41:51;;;;;;;1.20;0.77;;;;;;;;;;2226093;26;20000;-70
2024/04/08 02:42:53;;;;;;;2.53;0.70;;;;;;;;;;2226069;26;20004;-68
2024/04/08 02:43:54;;;;;;;1.98;0.70;;;;;;;;;;2226150;26;20016;-73
2024/04/08 02:44:56;;;;;;;2.25;0.70;;;;;;;;;;2223651;26;20007;-73
2024/04/08 02:45:58;;;;;;;3.83;0.80;;;;;;;;;;2225977;26;20004;-72
2024/04/08 02:46:59;;;;;;;2.10;0.60;;;;;;;;;;2226095;26;20391;-69
2024/04/08 02:48:01;;;;;;;2.55;0.68;;;;;;;;;;2225885;26;20004;-74
2024/04/08 02:49:02;;;;;;;2.05;0.80;;;;;;;;;;2225946;26;19996;-70
2024/04/08 02:50:04;;;;;;;1.95;0.80;;;;;;;;;;2226284;26;20004;-73
2024/04/08 02:51:06;;;;;;;1.95;0.63;;;;;;;;;;2225555;26;20052;-68
2024/04/08 02:52:07;;;;;;;3.65;0.77;;;;;;;;;;2224118;26;20023;-69
2024/04/08 02:53:08;;;;;;;2.55;0.70;;;;;;;;;;2225960;26;20000;-66
2024/04/08 02:54:10;;;;;;;0.90;0.50;;;;;;;;;;2225927;26;20000;-70
2024/04/08 02:55:11;;;;;;;4.43;1.10;;;;;;;;;;2225855;26;20504;-73
2024/04/08 02:56:12;;;;;;;3.75;0.80;;;;;;;;;;2226130;26;20012;-73
2024/04/08 02:57:14;;;;;;;2.75;1.02;;;;;;;;;;2226016;26;20150;-70
2024/04/08 02:58:15;;;;;;;2.13;1.05;;;;;;;;;;2226124;26;20073;-69
2024/04/08 02:59:16;;;;;;;2.72;0.80;;;;;;;;;;2225948;26;20015;-72
2024/04/08 03:00:18;;;;;;;1.63;0.75;;;;;;;;;;2225580;26;20016;-72
2024/04/08 03:01:20;;;;;;;2.55;0.70;;;;;;;;;;2226266;26;20000;-71
2024/04/08 03:02:21;;;;;;;2.95;0.90;;;;;;;;;;2225939;26;20070;-71
2024/04/08 03:03:22;;;;;;;1.75;0.75;;;;;;;;;;2226101;26;20012;-73
2024/04/08 03:04:24;;;;;;;2.03;0.77;;;;;;;;;;2225971;26;20442;-68
2024/04/08 03:05:27;;;;;;;3.53;0.65;;;;;;;;;;2225927;26;20015;-71
2024/04/08 03:06:29;;;;;;;2.35;0.95;;;;;;;;;;2224408;26;20000;-67
2024/04/08 03:07:30;;;;;;;1.40;0.88;;;;;;;;;;2225750;26;20014;-72
2024/04/08 03:08:35;;;;;;;3.05;0.88;;;;;;;;;;2225830;26;20024;-70
2024/04/08 03:09:37;;;;;;;3.13;0.90;;;;;;;;;;2223970;26;20008;-74
2024/04/08 03:10:38;;;;;;;3.05;1.10;;;;;;;;;;2226197;26;20078;-73
2024/04/08 03:11:39;;;;;;;3.58;0.90;;;;;;;;;;2225904;26;20119;-74
2024/04/08 03:12:41;;;;;;;3.72;1.20;;;;;;;;;;2225807;26;20011;-72
2024/04/08 03:13:42;;;;;;;2.72;1.00;;;;;;;;;;2225934;26;20336;-73
2024/04/08 03:14:44;;;;;;;2.80;0.70;;;;;;;;;;2226010;26;20004;-72
2024/04/08 03:15:53;;;;;;;8.38;1.85;;;;;;;;;;2225813;26;20028;-69
2024/04/08 03:16:54;;;;;;;4.53;1.15;;;;;;;;;;2225482;26;20016;-72
2024/04/08 03:17:55;;;;;;;4.22;1.40;;;;;;;;;;2226072;26;20064;-71
2024/04/08 03:18:57;;;;;;;7.72;1.45;;;;;;;;;;2223679;26;20074;-71
2024/04/08 03:19:58;;;;;;;3.50;0.95;;;;;;;;;;2226138;26;20445;-70
2024/04/08 03:21:04;;;;;;;2.60;0.90;;;;;;;;;;2225567;26;20004;-67
2024/04/08 03:22:05;;;;;;;2.63;0.95;;;;;;;;;;2223535;26;20023;-69
2024/04/08 03:23:07;;;;;;;2.67;0.60;;;;;;;;;;2225876;26;20010;-73
2024/04/08 03:24:08;;;;;;;2.53;0.80;;;;;;;;;;2225141;26;19997;-69
2024/04/08 03:25:10;;;;;;;1.38;0.80;;;;;;;;;;2224813;26;20000;-68
2024/04/08 03:26:15;;;;;;;3.28;1.00;;;;;;;;;;2225911;26;20333;-73
2024/04/08 03:27:16;;;;;;;2.63;0.90;;;;;;;;;;2225225;26;20026;-73
2024/04/08 03:28:18;;;;;;;4.97;1.17;;;;;;;;;;2225940;26;20008;-67
2024/04/08 03:29:19;;;;;;;4.20;0.73;;;;;;;;;;2225896;26;20000;-71
2024/04/08 03:30:20;;;;;;;4.13;1.00;;;;;;;;;;2225635;26;20104;-65
2024/04/08 03:31:22;;;;;;;5.07;0.82;;;;;;;;;;2225772;26;20159;-70
2024/04/08 03:32:23;;;;;;;2.30;0.70;;;;;;;;;;2225687;26;20368;-72
2024/04/08 03:33:26;;;;;;;2.63;0.60;;;;;;;;;;2225867;26;20001;-73
2024/04/08 03:34:28;;;;;;;2.75;0.68;;;;;;;;;;2223909;26;20006;-70
2024/04/08 03:35:29;;;;;;;4.85;0.80;;;;;;;;;;2225898;26;20019;-75
2024/04/08 03:36:31;;;;;;;2.40;0.73;;;;;;;;;;2225846;26;20019;-67
2024/04/08 03:37:34;;;;;;;1.77;0.65;;;;;;;;;;2225743;26;20015;-69
2024/04/08 03:38:35;;;;;;;3.08;0.80;;;;;;;;;;2225782;26;20000;-72
2024/04/08 03:39:37;;;;;;;1.73;0.57;;;;;;;;;;2225935;26;20405;-68
2024/04/08 03:40:38;;;;;;;2.28;0.70;;;;;;;;;;2225814;26;20041;-71
2024/04/08 03:41:39;;;;;;;2.17;0.60;;;;;;;;;;2225550;26;20407;-71
2024/04/08 03:42:41;;;;;;;3.72;0.93;;;;;;;;;;2224799;26;20002;-67
2024/04/08 03:43:42;;;;;;;1.80;0.70;;;;;;;;;;2224992;26;20012;-69
2024/04/08 03:44:47;;;;;;;4.05;0.80;;;;;;;;;;2225522;26;20004;-70
2024/04/08 03:45:52;;;;;;;2.70;0.70;;;;;;;;;;2223909;26;19996;-70
2024/04/08 03:46:53;;;;;;;4.13;1.00;;;;;;;;;;2225701;26;20336;-69
2024/04/08 03:47:55;;;;;;;3.85;0.73;;;;;;;;;;2223615;26;20087;-70
2024/04/08 03:48:57;;;;;;;3.80;0.93;;;;;;;;;;2224018;26;20004;-70
2024/04/08 03:49:59;;;;;;;5.05;0.85;;;;;;;;;;2225622;26;20014;-67
2024/04/08 03:51:07;;;;;;;3.55;0.88;;;;;;;;;;2225106;26;20446;-71
2024/04/08 03:52:08;;;;;;;3.25;0.75;;;;;;;;;;2222609;26;20000;-71
2024/04/08 03:53:10;;;;;;;2.20;0.70;;;;;;;;;;2225590;26;20023;-70
2024/04/08 03:54:11;;;;;;;2.78;0.95;;;;;;;;;;2225520;26;20004;-70
2024/04/08 03:55:13;;;;;;;3.38;1.10;;;;;;;;;;2225759;26;20004;-72
2024/04/08 03:56:14;;;;;;;2.42;0.98;;;;;;;;;;2225730;26;20069;-67
2024/04/08 03:57:15;;;;;;;2.28;1.13;;;;;;;;;;2225486;26;20008;-71
2024/04/08 03:58:17;;;;;;;3.72;1.05;;;;;;;;;;2223564;26;20007;-66
2024/04/08 03:59:18;;;;;;;4.20;1.30;;;;;;;;;;2223751;26;20000;-71
2024/04/08 04:00:20;;;;;;;4.43;1.08;;;;;;;;;;2224903;26;20028;-72
2024/04/08 04:01:21;;;;;;;2.75;0.80;;;;;;;;;;2224261;26;20500;-71
2024/04/08 04:02:22;;;;;;;2.63;1.13;;;;;;;;;;2225662;26;20019;-71
2024/04/08 04:03:24;;;;;;;2.55;1.00;;;;;;;;;;2225597;26;20012;-69
2024/04/08 04:04:25;;;;;;;4.68;1.20;;;;;;;;;;2225648;26;20102;-73
2024/04/08 04:05:27;;;;;;;2.10;0.98;;;;;;;;;;2223655;26;20340;-68
2024/04/08 04:06:28;;;;;;;3.58;1.00;;;;;;;;;;2225636;26;20000;-71
2024/04/08 04:07:30;;;;;;;3.88;1.08;;;;;;;;;;2224500;26;20000;-73
2024/04/08 04:08:32;;;;;;;5.00;1.38;;;;;;;;;;2224666;26;20004;-74
2024/04/08 04:09:34;;;;;;;5.70;1.00;;;;;;;;;;2225601;26;20012;-74
2024/04/08 04:10:35;;;;;;;6.18;1.20;;;;;;;;;;2225450;26;20123;-69
2024/04/08 04:11:36;;;;;;;7.38;1.25;;;;;;;;;;2224252;26;20011;-72
2024/04/08 04:12:39;;;;;;;3.90;0.95;;;;;;;;;;2227259;26;20077;-68
2024/04/08 04:13:40;;;;;;;1.80;0.85;;;;;;;;;;2225719;26;20012;-74
2024/04/08 04:14:42;;;;;;;4.38;1.58;;;;;;;;;;2225414;26;20004;-74
2024/04/08 04:15:44;;;;;;;2.92;1.33;;;;;;;;;;2225452;26;20008;-72
2024/04/08 04:16:47;;;;;;;4.13;0.98;;;;;;;;;;2224838;26;20324;-73
2024/04/08 04:17:49;;;;;;;5.60;1.45;;;;;;;;;;2222955;26;20015;-75
2024/04/08 04:18:53;;;;;;;5.72;1.38;;;;;;;;;;2225413;26;19996;-74
2024/04/08 04:19:54;;;;;;;3.60;1.60;;;;;;;;;;2225634;26;20007;-74
2024/04/08 04:20:56;;;;;;;3.60;0.95;;;;;;;;;;2223127;26;20416;-72
2024/04/08 04:21:57;;;;;;;3.13;1.23;;;;;;;;;;2225747;26;20000;-75
2024/04/08 04:22:58;;;;;;;6.63;1.27;;;;;;;;;;2225417;26;20439;-74
2024/04/08 04:24:00;;;;;;;3.15;1.20;;;;;;;;;;2224527;26;20032;-71
2024/04/08 04:25:01;;;;;;;3.45;1.10;;;;;;;;;;2225359;26;20000;-73
2024/04/08 04:26:03;;;;;;;4.68;1.40;;;;;;;;;;2225518;26;20300;-72
2024/04/08 04:27:04;;;;;;;6.13;1.35;;;;;;;;;;2225353;26;19996;-71
2024/04/08 04:28:06;;;;;;;8.90;1.50;;;;;;;;;;2223079;26;20488;-71
2024/04/08 04:29:07;;;;;;;6.30;1.90;;;;;;;;;;2225073;26;20000;-75
2024/04/08 04:30:09;;;;;;;3.17;1.10;;;;;;;;;;2224811;26;20000;-70
2024/04/08 04:31:10;;;;;;;6.03;1.42;;;;;;;;;;2225239;26;20345;-73
2024/04/08 04:32:11;;;;;;;5.32;1.35;;;;;;;;;;2224797;26;20010;-73
2024/04/08 04:33:14;;;;;;;6.10;1.55;;;;;;;;;;2224413;26;20345;-73
2024/04/08 04:34:15;;;;;;;8.80;1.52;;;;;;;;;;2225670;26;20000;-75
2024/04/08 04:35:16;;;;;;;4.35;1.50;;;;;;;;;;2225336;26;20000;-70
2024/04/08 04:36:18;;;;;;;5.28;1.58;;;;;;;;;;2225360;26;20011;-68
2024/04/08 04:37:20;;;;;;;4.72;1.10;;;;;;;;;;2225462;26;20167;-72
2024/04/08 04:38:21;;;;;;;5.63;1.30;;;;;;;;;;2225542;26;20015;-69
2024/04/08 04:39:24;;;;;;;5.63;1.40;;;;;;;;;;2225454;26;20019;-72
2024/04/08 04:40:25;;;;;;;4.32;1.40;;;;;;;;;;2224829;26;20000;-72
2024/04/08 04:41:26;;;;;;;3.33;1.30;;;;;;;;;;2223357;26;20004;-74
2024/04/08 04:42:28;;;;;;;5.15;1.00;;;;;;;;;;2225346;26;20441;-71
2024/04/08 04:43:30;;;;;;;2.67;1.10;;;;;;;;;;2224608;26;20015;-71
2024/04/08 04:44:31;;;;;;;3.83;1.08;;;;;;;;;;2224399;26;19996;-69
2024/04/08 04:45:33;;;;;;;7.65;1.88;;;;;;;;;;2225423;26;20004;-74
2024/04/08 04:46:34;;;;;;;5.97;1.30;;;;;;;;;;2224936;26;20000;-74
2024/04/08 04:47:35;;;;;;;5.00;1.58;;;;;;;;;;2224426;26;20012;-74
2024/04/08 04:48:37;;;;;;;6.70;1.10;;;;;;;;;;2224286;26;20008;-72
2024/04/08 04:49:38;;;;;;;4.15;1.58;;;;;;;;;;2225450;26;20082;-73
2024/04/08 04:50:40;;;;;;;3.28;1.45;;;;;;;;;;2225151;26;20008;-72
2024/04/08 04:51:42;;;;;;;10.00;3.45;;;;;;;;;;2224930;26;20000;-74
2024/04/08 04:52:44;;;;;;;5.70;1.40;;;;;;;;;;2225029;26;20000;-70
2024/04/08 04:53:46;;;;;;;3.97;1.67;;;;;;;;;;2224432;26;20016;-71
2024/04/08 04:54:47;;;;;;;5.97;1.60;;;;;;;;;;2225355;26;20032;-70
2024/04/08 04:55:53;;;;;;;4.43;1.13;;;;;;;;;;2225122;26;20011;-70
2024/04/08 04:56:54;;;;;;;3.80;1.50;;;;;;;;;;2227446;26;20011;-67
2024/04/08 04:57:57;;;;;;;5.68;1.23;;;;;;;;;;2223035;26;20022;-73
2024/04/08 04:58:58;;;;;;;3.83;1.25;;;;;;;;;;2225200;26;20069;-70
2024/04/08 04:59:59;;;;;;;2.72;1.00;;;;;;;;;;2225366;26;20000;-70
2024/04/08 05:01:01;;;;;;;6.43;1.38;;;;;;;;;;2225063;26;20015;-74
2024/04/08 05:02:02;;;;;;;3.83;1.00;;;;;;;;;;2225670;26;20001;-74
2024/04/08 05:03:04;;;;;;;6.35;1.02;;;;;;;;;;2223823;26;20465;-72
2024/04/08 05:04:06;;;;;;;4.00;0.70;;;;;;;;;;2225388;26;20012;-71
2024/04/08 05:05:07;;;;;;;2.80;1.05;;;;;;;;;;2218810;26;20014;-69
2024/04/08 05:06:08;;;;;;;4.45;1.13;;;;;;;;;;2220433;26;20055;-70
2024/04/08 05:07:10;;;;;;;5.60;1.58;;;;;;;;;;2218805;26;20544;-69
2024/04/08 05:08:11;;;;;;;6.70;1.92;;;;;;;;;;2224010;26;20526;-68
2024/04/08 05:09:13;;;;;;;5.18;0.82;;;;;;;;;;2221311;26;20018;-71
2024/04/08 05:10:14;;;;;;;4.80;1.48;;;;;;;;;;2221666;26;20004;-71
2024/04/08 05:11:16;;;;;;;2.00;1.08;;;;;;;;;;2220435;26;20371;-73
2024/04/08 05:12:17;;;;;;;3.30;1.00;;;;;;;;;;2222641;26;20004;-69
2024/04/08 05:13:19;;;;;;;4.68;0.90;;;;;;;;;;2223490;26;20353;-69
2024/04/08 05:14:20;;;;;;;5.35;2.13;;;;;;;;;;2223317;26;20447;-71
2024/04/08 05:15:21;;;;;;;4.28;1.38;;;;;;;;;;2221631;26;20314;-69
2024/04/08 05:16:24;;;;;;;4.90;1.10;;;;;;;;;;2221898;26;20011;-70
2024/04/08 05:17:25;;;;;;;4.93;1.20;;;;;;;;;;2219269;26;20008;-70
2024/04/08 05:18:27;;;;;;;7.32;1.77;;;;;;;;;;2221697;26;20341;-69
2024/04/08 05:19:29;;;;;;;4.15;1.27;;;;;;;;;;2223254;26;20000;-71
2024/04/08 05:20:30;;;;;;;5.07;1.38;;;;;;;;;;2223309;26;20340;-71
2024/04/08 05:21:32;;;;;;;6.65;1.48;;;;;;;;;;2222727;26;20013;-71
2024/04/08 05:22:33;;;;;;;4.15;1.02;;;;;;;;;;2222903;26;20004;-73
2024/04/08 05:23:35;;;;;;;6.97;1.50;;;;;;;;;;2223516;26;20000;-72
2024/04/08 05:24:36;;;;;;;6.97;1.90;;;;;;;;;;2221800;26;20036;-70
2024/04/08 05:25:38;;;;;;;8.95;1.35;;;;;;;;;;2221949;26;20004;-74
2024/04/08 05:26:40;;;;;;;4.47;1.30;;;;;;;;;;2222815;26;20416;-72
2024/04/08 05:27:41;;;;;;;6.25;1.63;;;;;;;;;;2221386;26;20012;-69
2024/04/08 05:28:43;;;;;;;7.20;1.58;;;;;;;;;;2223080;26;20012;-71
2024/04/08 05:29:45;;;;;;;4.53;1.58;;;;;;;;;;2223046;26;20015;-72
2024/04/08 05:30:46;;;;;;;5.28;1.48;;;;;;;;;;2223103;26;20019;-71
2024/04/08 05:31:48;;;;;;;3.35;1.38;;;;;;;;;;2222175;26;20037;-70
2024/04/08 05:32:49;;;;;;;6.57;1.45;;;;;;;;;;2222873;26;20000;-68
2024/04/08 05:33:50;;;;;;;5.85;1.38;;;;;;;;;;2222861;26;20000;-69
2024/04/08 05:34:52;;;;;;;4.07;1.38;;;;;;;;;;2218994;26;20000;-69
2024/04/08 05:35:53;;;;;;;5.22;1.75;;;;;;;;;;2222261;26;20341;-69
2024/04/08 05:36:55;;;;;;;6.53;1.92;;;;;;;;;;2223510;26;20012;-70
2024/04/08 05:37:56;;;;;;;7.82;1.40;;;;;;;;;;2221963;26;20074;-66
2024/04/08 05:38:58;;;;;;;6.43;1.60;;;;;;;;;;2224078;26;20433;-67
2024/04/08 05:39:59;;;;;;;4.45;1.33;;;;;;;;;;2223391;26;20112;-69
2024/04/08 05:41:02;;;;;;;4.32;1.50;;;;;;;;;;2224685;26;20105;-71
2024/04/08 05:42:03;;;;;;;5.70;1.83;;;;;;;;;;2224480;26;20012;-69
2024/04/08 05:43:05;;;;;;;5.28;1.42;;;;;;;;;;2223565;26;20012;-72
2024/04/08 05:44:06;;;;;;;7.65;2.13;;;;;;;;;;2221939;26;20019;-68
2024/04/08 05:45:08;;;;;;;8.73;1.90;;;;;;;;;;2222148;26;20008;-70
2024/04/08 05:46:09;;;;;;;7.75;1.58;;;;;;;;;;2224374;26;20044;-72
2024/04/08 05:47:12;;;;;;;4.50;1.83;;;;;;;;;;2224164;26;20015;-71
2024/04/08 05:48:14;;;;;;;5.88;2.05;;;;;;;;;;2223925;26;20016;-74
2024/04/08 05:49:16;;;;;;;8.02;1.77;;;;;;;;;;2221540;26;20008;-77
2024/04/08 05:50:17;;;;;;;9.68;2.05;;;;;;;;;;2224260;26;20001;-71
2024/04/08 05:51:19;;;;;;;9.23;2.53;;;;;;;;;;2223019;26;19996;-74
2024/04/08 05:52:20;;;;;;;8.05;2.08;;;;;;;;;;2222954;26;20001;-78
2024/04/08 05:53:21;;;;;;;5.32;1.50;;;;;;;;;;2224908;26;20404;-73
2024/04/08 05:54:23;;;;;;;6.10;1.63;;;;;;;;;;2223345;26;20005;-78
2024/04/08 05:55:25;;;;;;;6.03;1.80;;;;;;;;;;2224276;26;20028;-75
2024/04/08 05:56:26;;;;;;;9.98;2.33;;;;;;;;;;2224852;26;20000;-74
2024/04/08 05:57:28;;;;;;;6.38;1.85;;;;;;;;;;2224486;26;20000;-77
2024/04/08 05:58:29;;;;;;;8.70;2.15;;;;;;;;;;2222935;26;20345;-69
2024/04/08 05:59:30;;;;;;;11.85;2.95;;;;;;;;;;2224655;26;20037;-72
2024/04/08 06:00:35;;;;;;;8.63;1.70;;;;;;;;;;2222993;26;20102;-71
2024/04/08 06:01:37;;;;;;;7.22;2.03;;;;;;;;;;2222958;26;20023;-72
2024/04/08 06:02:39;;;;;;;8.40;2.30;;;;;;;;;;2223175;26;20000;-70
2024/04/08 06:03:40;;;;;;;6.63;2.10;;;;;;;;;;2223987;26;20485;-72
2024/04/08 06:04:42;;;;;;;8.68;2.80;;;;;;;;;;2224185;26;19996;-71
2024/04/08 06:05:44;;;;;;;6.68;1.98;;;;;;;;;;2224292;26;20340;-74
2024/04/08 06:06:46;;;;;;;6.75;1.65;;;;;;;;;;2224118;26;20081;-72
2024/04/08 06:07:48;;;;;;;6.72;2.75;;;;;;;;;;2222511;26;20019;-74
2024/04/08 06:08:57;;;;;;;7.88;2.00;;;;;;;;;;2222971;26;20005;-70
2024/04/08 06:09:58;;;;;;;8.15;1.65;;;;;;;;;;2221964;26;20000;-74